createdAt,value
2018-09-03T00:00:07.166Z,12.03
2018-09-03T00:02:37.890Z,9.80
2018-09-03T00:05:06.842Z,10.65
2018-09-03T00:07:35.773Z,10.13
2018-09-03T00:10:14.836Z,8.90
2018-09-03T00:12:43.747Z,10.05
2018-09-03T00:15:12.899Z,12.98
2018-09-03T00:17:41.776Z,12.37
2018-09-03T00:20:11.209Z,12.43
2018-09-03T00:22:40.031Z,9.03
2018-09-03T00:25:09.567Z,11.00
2018-09-03T00:27:38.569Z,10.75
2018-09-03T00:30:07.794Z,11.53
2018-09-03T00:32:41.696Z,12.15
2018-09-03T00:35:15.891Z,11.70
2018-09-03T00:37:50.541Z,12.23
2018-09-03T00:41:28.445Z,12.80
2018-09-03T00:44:03.170Z,10.55
2018-09-03T00:46:38.126Z,13.95
2018-09-03T00:49:08.657Z,13.83
2018-09-03T00:51:42.146Z,14.58
2018-09-03T00:54:11.262Z,14.73
2018-09-03T00:56:48.811Z,17.07
2018-09-03T00:59:17.759Z,12.33
2018-09-03T01:01:46.832Z,15.30
2018-09-03T01:04:15.935Z,15.00
2018-09-03T01:06:44.963Z,17.50
2018-09-03T01:09:14.895Z,15.10
2018-09-03T01:11:43.990Z,17.27
2018-09-03T01:14:13.763Z,11.55
2018-09-03T01:16:43.582Z,18.75
2018-09-03T01:19:12.747Z,15.40
2018-09-03T01:21:41.960Z,17.73
2018-09-03T01:24:10.787Z,17.42
2018-09-03T01:26:39.759Z,18.90
2018-09-03T01:29:08.847Z,12.23
2018-09-03T01:31:37.905Z,16.05
2018-09-03T01:34:06.925Z,13.90
2018-09-03T01:36:36.067Z,16.65
2018-09-03T01:39:08.097Z,17.15
2018-09-03T01:41:38.073Z,20.15
2018-09-03T01:47:11.465Z,17.85
2018-09-03T01:49:47.598Z,18.20
2018-09-03T01:52:18.001Z,18.40
2018-09-03T01:54:47.472Z,16.75
2018-09-03T01:57:25.358Z,16.97
2018-09-03T01:59:58.129Z,14.00
2018-09-03T02:02:28.174Z,17.70
2018-09-03T02:04:57.632Z,18.62
2018-09-03T02:07:26.941Z,23.00
2018-09-03T02:09:57.255Z,19.27
2018-09-03T02:12:30.289Z,19.75
2018-09-03T02:15:09.019Z,21.02
2018-09-03T02:17:38.151Z,17.75
2018-09-03T02:20:12.246Z,17.32
2018-09-03T02:22:41.714Z,18.37
2018-09-03T02:25:21.105Z,20.05
2018-09-03T02:27:55.513Z,21.87
2018-09-03T02:30:29.224Z,19.15
2018-09-03T02:32:59.535Z,19.20
2018-09-03T02:35:28.542Z,16.48
2018-09-03T02:37:57.597Z,19.50
2018-09-03T02:40:27.165Z,21.82
2018-09-03T02:42:57.259Z,21.50
2018-09-03T02:45:26.748Z,18.15
2018-09-03T02:47:57.784Z,21.07
2018-09-03T02:50:45.362Z,21.25
2018-09-03T02:53:18.298Z,18.77
2018-09-03T02:55:54.568Z,23.85
2018-09-03T02:58:24.035Z,20.68
2018-09-03T03:03:54.138Z,25.08
2018-09-03T03:29:45.540Z,22.87
2018-09-03T03:32:14.898Z,23.42
2018-09-03T03:34:47.499Z,28.83
2018-09-03T03:46:29.436Z,27.77
2018-09-03T03:48:59.368Z,19.40
2018-09-03T03:51:28.403Z,23.27
2018-09-03T03:53:57.335Z,28.70
2018-09-03T03:56:27.629Z,19.80
2018-09-03T03:58:57.020Z,23.57
2018-09-03T04:01:25.967Z,26.55
2018-09-03T04:03:55.155Z,29.52
2018-09-03T04:06:24.261Z,21.37
2018-09-03T04:08:53.814Z,23.45
2018-09-03T04:11:22.654Z,24.43
2018-09-03T04:13:58.465Z,30.23
2018-09-03T04:19:30.974Z,28.50
2018-09-03T04:22:00.604Z,26.55
2018-09-03T04:24:31.034Z,30.10
2018-09-03T04:27:00.200Z,23.62
2018-09-03T04:29:29.786Z,25.82
2018-09-03T04:31:59.320Z,32.63
2018-09-03T04:34:28.138Z,22.42
2018-09-03T04:36:57.197Z,28.02
2018-09-03T04:39:26.253Z,26.52
2018-09-03T04:41:54.776Z,30.90
2018-09-03T04:44:23.447Z,33.30
2018-09-03T04:46:53.222Z,25.17
2018-09-03T04:49:21.823Z,30.62
2018-09-03T04:51:54.125Z,25.60
2018-09-03T04:54:28.423Z,20.40
2018-09-03T04:57:12.896Z,24.65
2018-09-03T04:59:42.964Z,25.15
2018-09-03T05:02:11.698Z,25.62
2018-09-03T05:04:43.530Z,25.08
2018-09-03T05:07:13.203Z,28.17
2018-09-03T05:09:41.832Z,28.55
2018-09-03T05:12:14.178Z,24.65
2018-09-03T05:14:47.578Z,25.17
2018-09-03T05:17:17.509Z,23.02
2018-09-03T05:19:56.930Z,21.27
2018-09-03T05:22:26.129Z,24.67
2018-09-03T05:24:56.636Z,23.85
2018-09-03T05:27:25.529Z,22.50
2018-09-03T05:29:54.615Z,23.30
2018-09-03T05:32:24.536Z,22.15
2018-09-03T05:34:53.606Z,23.02
2018-09-03T05:37:23.245Z,23.20
2018-09-03T05:40:39.058Z,22.37
2018-09-03T05:46:28.282Z,22.90
2018-09-03T05:49:11.772Z,22.77
2018-09-03T05:51:46.723Z,23.20
2018-09-03T05:54:26.490Z,18.90
2018-09-03T05:56:58.160Z,26.77
2018-09-03T05:59:29.503Z,19.92
2018-09-03T06:11:40.009Z,25.43
2018-09-03T06:14:16.899Z,21.73
2018-09-03T06:16:53.111Z,25.50
2018-09-03T06:25:34.919Z,20.30
2018-09-03T06:28:06.692Z,24.02
2018-09-03T06:30:38.280Z,18.52
2018-09-03T06:33:08.103Z,23.27
2018-09-03T06:35:43.045Z,22.37
2018-09-03T06:47:51.004Z,18.75
2018-09-03T06:53:48.084Z,18.82
2018-09-03T06:56:22.625Z,18.70
2018-09-03T06:58:54.613Z,21.20
2018-09-03T07:01:27.463Z,20.48
2018-09-03T07:04:03.336Z,26.93
2018-09-03T07:06:33.069Z,17.17
2018-09-03T07:09:05.284Z,20.08
2018-09-03T07:11:41.903Z,16.50
2018-09-03T07:14:21.100Z,20.62
2018-09-03T07:17:06.465Z,20.10
2018-09-03T07:22:49.988Z,23.07
2018-09-03T07:25:37.551Z,23.00
2018-09-03T07:28:07.445Z,18.48
2018-09-03T07:30:39.024Z,22.17
2018-09-03T07:33:22.211Z,21.42
2018-09-03T07:39:06.615Z,18.92
2018-09-03T07:41:44.443Z,20.57
2018-09-03T07:50:26.132Z,22.73
2018-09-03T07:52:57.365Z,21.55
2018-09-03T07:55:30.907Z,24.60
2018-09-03T07:58:05.207Z,23.12
2018-09-03T08:00:45.728Z,22.45
2018-09-03T08:03:28.840Z,18.12
2018-09-03T08:06:05.195Z,25.02
2018-09-03T08:08:36.015Z,22.37
2018-09-03T08:11:14.158Z,22.25
2018-09-03T08:14:30.934Z,24.05
2018-09-03T08:17:02.039Z,15.80
2018-09-03T08:19:39.671Z,18.92
2018-09-03T08:22:23.323Z,23.85
2018-09-03T08:25:04.243Z,16.77
2018-09-03T08:27:45.358Z,23.98
2018-09-03T08:33:01.216Z,17.87
2018-09-03T08:35:51.002Z,21.35
2018-09-03T08:45:13.246Z,18.90
2018-09-03T08:47:43.898Z,16.65
2018-09-03T08:50:17.644Z,17.45
2018-09-03T08:52:51.129Z,15.80
2018-09-03T08:55:37.425Z,20.00
2018-09-03T08:58:10.918Z,19.07
2018-09-03T09:00:41.732Z,17.23
2018-09-03T09:03:25.063Z,25.52
2018-09-03T09:06:02.986Z,22.35
2018-09-03T09:08:43.548Z,18.75
2018-09-03T09:11:22.921Z,15.88
2018-09-03T09:14:01.461Z,16.17
2018-09-03T09:16:48.479Z,16.95
2018-09-03T09:19:23.439Z,17.70
2018-09-03T09:21:57.307Z,18.80
2018-09-03T09:24:30.124Z,20.12
2018-09-03T09:27:09.992Z,20.27
2018-09-03T09:29:50.709Z,17.50
2018-09-03T09:32:28.015Z,20.48
2018-09-03T09:34:59.691Z,18.05
2018-09-03T09:37:38.672Z,18.57
2018-09-03T09:40:19.604Z,21.45
2018-09-03T09:46:01.680Z,16.00
2018-09-03T09:48:42.253Z,19.02
2018-09-03T09:51:26.990Z,17.80
2018-09-03T09:54:05.926Z,21.10
2018-09-03T09:56:41.050Z,17.27
2018-09-03T09:59:13.575Z,19.37
2018-09-03T10:01:47.867Z,17.87
2018-09-03T10:04:25.558Z,19.10
2018-09-03T10:07:12.107Z,21.00
2018-09-03T10:09:53.129Z,18.60
2018-09-03T10:18:47.585Z,17.52
2018-09-03T10:21:35.684Z,16.73
2018-09-03T10:24:14.685Z,16.07
2018-09-03T10:27:05.054Z,15.25
2018-09-03T10:29:41.598Z,18.87
2018-09-03T10:32:18.406Z,15.35
2018-09-03T10:35:06.453Z,15.55
2018-09-03T10:37:46.985Z,16.10
2018-09-03T10:40:17.072Z,15.78
2018-09-03T10:42:50.343Z,13.83
2018-09-03T10:45:25.760Z,17.45
2018-09-03T10:47:56.419Z,13.65
2018-09-03T10:50:26.729Z,12.65
2018-09-03T10:53:02.811Z,14.58
2018-09-03T10:55:43.711Z,14.15
2018-09-03T11:04:08.589Z,12.47
2018-09-03T11:09:44.451Z,12.93
2018-09-03T11:15:05.916Z,15.25
2018-09-03T11:17:34.416Z,13.15
2018-09-03T11:20:04.842Z,15.78
2018-09-03T11:22:33.403Z,13.20
2018-09-03T11:25:01.929Z,14.65
2018-09-03T11:27:30.489Z,13.13
2018-09-03T11:29:58.989Z,14.63
2018-09-03T11:32:27.522Z,15.63
2018-09-03T11:34:56.033Z,13.00
2018-09-03T11:37:24.559Z,13.13
2018-09-03T11:39:53.152Z,12.03
2018-09-03T11:42:21.592Z,11.65
2018-09-03T11:44:50.126Z,16.55
2018-09-03T11:47:18.816Z,12.98
2018-09-03T11:49:47.821Z,12.82
2018-09-03T11:52:16.883Z,14.18
2018-09-03T11:54:45.455Z,13.30
2018-09-03T11:57:13.981Z,8.80
2018-09-03T11:59:43.200Z,10.18
2018-09-03T12:02:11.812Z,7.60
2018-09-03T12:04:40.303Z,11.10
2018-09-03T12:07:08.832Z,11.85
2018-09-03T12:09:37.258Z,10.78
2018-09-03T12:12:05.920Z,9.05
2018-09-03T12:14:37.371Z,9.18
2018-09-03T12:17:06.648Z,7.17
2018-09-03T12:19:35.193Z,5.70
2018-09-03T12:22:03.811Z,7.97
2018-09-03T12:24:32.386Z,11.55
2018-09-03T12:27:01.145Z,17.02
2018-09-03T12:29:29.667Z,6.45
2018-09-03T12:31:58.278Z,7.08
2018-09-03T12:34:27.388Z,10.25
2018-09-03T12:36:55.853Z,9.05
2018-09-03T12:39:24.638Z,8.53
2018-09-03T12:41:53.118Z,8.65
2018-09-03T12:44:21.721Z,8.23
2018-09-03T12:46:56.786Z,9.20
2018-09-03T12:49:25.280Z,7.03
2018-09-03T12:51:53.795Z,9.73
2018-09-03T12:54:22.294Z,7.25
2018-09-03T12:56:50.877Z,5.37
2018-09-03T12:59:19.326Z,3.60
2018-09-03T13:01:47.783Z,4.25
2018-09-03T13:04:16.305Z,3.83
2018-09-03T13:06:44.870Z,7.75
2018-09-03T13:09:13.369Z,2.67
2018-09-03T13:11:41.907Z,4.30
2018-09-03T13:14:10.335Z,3.83
2018-09-03T13:16:38.891Z,4.30
2018-09-03T13:19:07.390Z,4.78
2018-09-03T13:21:35.810Z,4.22
2018-09-03T13:24:04.380Z,3.62
2018-09-03T13:26:33.031Z,3.95
2018-09-03T13:29:01.666Z,5.03
2018-09-03T13:31:33.306Z,3.70
2018-09-03T13:34:04.980Z,3.37
2018-09-03T13:36:37.096Z,3.50
2018-09-03T13:39:11.693Z,4.30
2018-09-03T13:41:41.159Z,4.30
2018-09-03T13:44:10.548Z,4.08
2018-09-03T13:46:39.221Z,3.25
2018-09-03T13:49:07.798Z,5.62
2018-09-03T13:51:36.449Z,4.42
2018-09-03T13:54:05.074Z,2.62
2018-09-03T13:56:33.820Z,3.02
2018-09-03T13:59:02.500Z,4.00
2018-09-03T14:01:31.162Z,4.22
2018-09-03T14:03:59.984Z,5.17
2018-09-03T14:06:28.457Z,6.20
2018-09-03T14:08:57.060Z,4.85
2018-09-03T14:11:25.676Z,6.40
2018-09-03T14:13:54.249Z,4.62
2018-09-03T14:16:22.955Z,4.20
2018-09-03T14:18:51.687Z,4.05
2018-09-03T14:21:21.104Z,5.00
2018-09-03T14:23:50.286Z,6.20
2018-09-03T14:26:19.400Z,6.58
2018-09-03T14:28:50.567Z,4.85
2018-09-03T14:31:19.524Z,7.05
2018-09-03T14:33:48.094Z,9.98
2018-09-03T14:36:16.513Z,8.03
2018-09-03T14:38:44.990Z,8.48
2018-09-03T14:41:13.548Z,8.20
2018-09-03T14:43:42.628Z,7.60
2018-09-03T14:46:11.080Z,7.12
2018-09-03T14:48:39.509Z,9.48
2018-09-03T14:51:08.034Z,8.20
2018-09-03T14:53:36.761Z,8.98
2018-09-03T14:56:05.448Z,6.65
2018-09-03T14:58:34.179Z,7.90
2018-09-03T15:01:02.706Z,10.90
2018-09-03T15:03:32.150Z,10.65
2018-09-03T15:06:00.855Z,12.07
2018-09-03T15:08:29.447Z,11.15
2018-09-03T15:10:59.475Z,11.25
2018-09-03T15:13:30.699Z,11.18
2018-09-03T15:15:59.234Z,13.58
2018-09-03T15:18:27.724Z,13.90
2018-09-03T15:20:56.221Z,12.20
2018-09-03T15:23:24.687Z,13.72
2018-09-03T15:25:53.177Z,12.43
2018-09-03T15:28:21.640Z,16.48
2018-09-03T15:30:50.074Z,10.58
2018-09-03T15:33:18.587Z,11.05
2018-09-03T15:35:48.161Z,12.03
2018-09-03T15:38:16.597Z,10.85
2018-09-03T15:40:45.233Z,14.80
2018-09-03T15:43:13.802Z,12.95
2018-09-03T15:45:42.239Z,9.88
2018-09-03T15:48:10.805Z,13.22
2018-09-03T15:50:39.306Z,17.42
2018-09-03T15:53:07.850Z,11.40
2018-09-03T15:55:36.316Z,9.78
2018-09-03T15:58:04.923Z,15.43
2018-09-03T16:00:33.465Z,13.78
2018-09-03T16:03:02.633Z,12.35
2018-09-03T16:05:31.122Z,9.93
2018-09-03T16:07:59.618Z,14.87
2018-09-03T16:10:28.232Z,15.13
2018-09-03T16:12:56.709Z,14.75
2018-09-03T16:15:25.389Z,14.55
2018-09-03T16:17:53.898Z,13.15
2018-09-03T16:20:22.913Z,13.32
2018-09-03T16:22:58.796Z,14.10
2018-09-03T16:25:27.282Z,13.90
2018-09-03T16:27:56.018Z,12.78
2018-09-03T16:30:24.396Z,14.83
2018-09-03T16:32:52.792Z,16.80
2018-09-03T16:35:21.261Z,14.73
2018-09-03T16:37:49.741Z,16.12
2018-09-03T16:40:18.337Z,15.40
2018-09-03T16:42:47.287Z,16.75
2018-09-03T16:45:16.592Z,16.23
2018-09-03T16:47:45.089Z,17.27
2018-09-03T16:50:14.049Z,16.55
2018-09-03T16:52:42.665Z,17.27
2018-09-03T16:55:11.154Z,15.43
2018-09-03T16:57:39.691Z,17.92
2018-09-03T17:00:08.651Z,21.37
2018-09-03T17:02:37.279Z,21.62
2018-09-03T17:05:05.870Z,15.38
2018-09-03T17:07:34.778Z,17.85
2018-09-03T17:10:03.505Z,14.10
2018-09-03T17:12:32.178Z,18.10
2018-09-03T17:15:00.658Z,18.52
2018-09-03T17:17:29.248Z,19.90
2018-09-03T17:19:57.937Z,15.78
2018-09-03T17:22:26.509Z,17.40
2018-09-03T17:24:55.672Z,23.52
2018-09-03T17:27:24.160Z,17.67
2018-09-03T17:29:52.663Z,21.85
2018-09-03T17:32:21.878Z,16.75
2018-09-03T17:34:50.364Z,15.65
2018-09-03T17:37:18.907Z,19.45
2018-09-03T17:39:47.755Z,19.17
2018-09-03T17:42:16.370Z,22.48
2018-09-03T17:44:45.126Z,17.57
2018-09-03T17:47:13.721Z,19.85
2018-09-03T17:49:42.454Z,19.42
2018-09-03T17:52:11.010Z,15.05
2018-09-03T17:54:39.557Z,17.07
2018-09-03T17:57:08.340Z,17.10
2018-09-03T17:59:36.990Z,19.90
2018-09-03T18:02:05.613Z,19.42
2018-09-03T18:04:34.404Z,17.52
2018-09-03T18:07:02.927Z,15.80
2018-09-03T18:09:32.190Z,15.32
2018-09-03T18:12:00.826Z,16.77
2018-09-03T18:14:30.008Z,18.60
2018-09-03T18:16:59.339Z,16.57
2018-09-03T18:19:29.070Z,14.00
2018-09-03T18:21:58.391Z,13.25
2018-09-03T18:24:26.964Z,15.00
2018-09-03T18:26:55.600Z,14.45
2018-09-03T18:29:24.127Z,17.77
2018-09-03T18:31:52.846Z,24.15
2018-09-03T18:34:21.585Z,24.05
2018-09-03T18:36:50.640Z,15.58
2018-09-03T18:39:19.178Z,22.70
2018-09-03T18:41:48.859Z,23.65
2018-09-03T18:44:17.430Z,24.35
2018-09-03T18:46:46.092Z,23.55
2018-09-03T18:49:14.672Z,22.55
2018-09-03T18:51:43.483Z,19.10
2018-09-03T18:54:12.232Z,26.15
2018-09-03T18:56:41.163Z,22.13
2018-09-03T18:59:09.907Z,24.67
2018-09-03T19:01:38.613Z,20.82
2018-09-03T19:04:07.157Z,20.85
2018-09-03T19:06:35.792Z,25.25
2018-09-03T19:09:05.136Z,29.70
2018-09-03T19:11:33.889Z,22.02
2018-09-03T19:14:02.518Z,32.23
2018-09-03T19:16:31.099Z,29.23
2018-09-03T19:18:59.676Z,25.90
2018-09-03T19:21:28.237Z,25.35
2018-09-03T19:23:57.450Z,29.30
2018-09-03T19:26:27.119Z,20.85
2018-09-03T19:28:55.983Z,30.82
2018-09-03T19:31:28.232Z,23.18
2018-09-03T19:33:59.109Z,30.35
2018-09-03T19:36:28.113Z,32.33
2018-09-03T19:38:56.656Z,33.25
2018-09-03T19:41:25.173Z,33.28
2018-09-03T19:43:53.730Z,32.70
2018-09-03T19:46:22.389Z,28.67
2018-09-03T19:48:51.840Z,31.45
2018-09-03T19:51:20.798Z,31.37
2018-09-03T19:53:49.419Z,31.12
2018-09-03T19:56:17.988Z,36.15
2018-09-03T19:58:46.687Z,27.02
2018-09-03T20:01:15.222Z,27.00
2018-09-03T20:03:43.795Z,31.50
2018-09-03T20:06:13.277Z,27.50
2018-09-03T20:08:41.905Z,30.88
2018-09-03T20:11:10.380Z,30.68
2018-09-03T20:13:38.889Z,32.83
2018-09-03T20:16:07.459Z,32.05
2018-09-03T20:18:36.148Z,36.00
2018-09-03T20:21:04.810Z,29.27
2018-09-03T20:23:33.404Z,28.20
2018-09-03T20:26:01.743Z,26.33
2018-09-03T20:28:30.427Z,30.70
2018-09-03T20:30:59.122Z,26.87
2018-09-03T20:33:28.006Z,35.05
2018-09-03T20:35:56.454Z,28.70
2018-09-03T20:38:25.054Z,28.20
2018-09-03T20:40:54.055Z,31.77
2018-09-03T20:43:22.914Z,30.97
2018-09-03T20:45:51.610Z,33.40
2018-09-03T20:48:20.490Z,32.93
2018-09-03T20:50:49.875Z,27.22
2018-09-03T20:53:19.347Z,24.15
2018-09-03T20:55:47.989Z,35.80
2018-09-03T20:58:16.580Z,25.60
2018-09-03T21:00:45.210Z,30.05
2018-09-03T21:03:13.825Z,29.42
2018-09-03T21:05:42.564Z,30.40
2018-09-03T21:08:11.272Z,30.85
2018-09-03T21:10:39.831Z,31.93
2018-09-03T21:13:08.512Z,27.87
2018-09-03T21:15:37.338Z,33.92
2018-09-03T21:18:06.001Z,28.47
2018-09-03T21:20:36.099Z,37.33
2018-09-03T21:23:05.631Z,26.25
2018-09-03T21:25:39.176Z,29.42
2018-09-03T21:28:07.599Z,35.65
2018-09-03T21:30:42.504Z,35.33
2018-09-03T21:33:13.374Z,42.50
2018-09-03T21:35:57.326Z,39.30
2018-09-03T21:38:31.509Z,36.48
2018-09-03T21:41:55.162Z,37.40
2018-09-03T21:44:32.872Z,41.88
2018-09-03T21:47:24.971Z,48.42
2018-09-03T21:50:09.385Z,44.42
2018-09-03T21:59:03.659Z,43.25
2018-09-03T22:01:38.038Z,45.80
2018-09-03T22:04:14.748Z,45.12
2018-09-03T22:06:52.458Z,48.63
2018-09-03T22:09:49.066Z,33.92
2018-09-03T22:12:41.053Z,43.38
2018-09-03T22:15:58.001Z,45.65
2018-09-03T22:18:48.226Z,54.73
2018-09-03T22:21:47.467Z,36.77
2018-09-03T22:24:27.582Z,31.68
2018-09-03T22:32:55.181Z,39.90
2018-09-03T22:38:24.980Z,33.80
2018-09-03T22:43:43.810Z,49.05
2018-09-03T22:46:19.699Z,43.63
2018-09-03T22:48:58.297Z,45.92
2018-09-03T22:51:30.897Z,48.92
2018-09-03T22:54:22.139Z,57.08
2018-09-03T22:56:54.229Z,50.20
2018-09-03T23:06:03.023Z,58.05
2018-09-03T23:08:49.488Z,53.33
2018-09-03T23:11:30.569Z,68.25
2018-09-03T23:14:06.137Z,62.30
2018-09-03T23:16:36.120Z,59.63
2018-09-03T23:22:15.058Z,37.85
2018-09-03T23:24:45.759Z,59.75
2018-09-03T23:30:24.651Z,42.62
2018-09-03T23:34:36.183Z,55.65
2018-09-03T23:44:52.600Z,58.30
2018-09-03T23:47:38.248Z,41.70
2018-09-03T23:50:20.417Z,51.77
2018-09-03T23:53:22.428Z,43.25
2018-09-03T23:56:10.430Z,64.55
2018-09-03T23:58:47.833Z,41.15
